createdAt,value
2018-04-26T00:00:03.953Z,0.00
2018-04-26T00:01:04.131Z,0.00
2018-04-26T00:02:04.318Z,0.00
2018-04-26T00:03:04.500Z,0.00
2018-04-26T00:04:04.679Z,0.00
2018-04-26T00:05:04.859Z,0.00
2018-04-26T00:06:05.039Z,0.00
2018-04-26T00:07:05.214Z,0.00
2018-04-26T00:08:05.396Z,0.00
2018-04-26T00:09:05.577Z,0.00
2018-04-26T00:10:05.764Z,0.00
2018-04-26T00:11:05.937Z,0.00
2018-04-26T00:12:06.117Z,0.00
2018-04-26T00:13:06.295Z,0.00
2018-04-26T00:14:06.470Z,0.00
2018-04-26T00:15:06.650Z,0.00
2018-04-26T00:16:06.828Z,0.00
2018-04-26T00:17:07.014Z,0.00
2018-04-26T00:18:07.202Z,0.00
2018-04-26T00:19:07.383Z,0.00
2018-04-26T00:20:07.558Z,0.00
2018-04-26T00:21:07.742Z,0.00
2018-04-26T00:22:07.916Z,0.00
2018-04-26T00:23:08.095Z,0.00
2018-04-26T00:24:08.288Z,0.00
2018-04-26T00:25:08.473Z,0.00
2018-04-26T00:26:08.651Z,0.00
2018-04-26T00:27:08.838Z,0.00
2018-04-26T00:28:09.019Z,0.00
2018-04-26T00:29:09.203Z,0.00
2018-04-26T00:30:09.374Z,0.00
2018-04-26T00:31:09.554Z,0.00
2018-04-26T00:32:09.742Z,0.00
2018-04-26T00:33:09.916Z,0.00
2018-04-26T00:34:10.094Z,0.00
2018-04-26T00:35:10.270Z,0.00
2018-04-26T00:36:10.446Z,0.00
2018-04-26T00:37:10.633Z,0.00
2018-04-26T00:38:10.812Z,0.00
2018-04-26T00:39:10.992Z,0.00
2018-04-26T00:40:11.163Z,0.00
2018-04-26T00:41:11.346Z,0.00
2018-04-26T00:42:11.523Z,0.00
2018-04-26T00:43:11.702Z,0.00
2018-04-26T00:44:11.879Z,0.00
2018-04-26T00:45:12.054Z,0.00
2018-04-26T00:46:12.236Z,0.00
2018-04-26T00:47:12.420Z,0.00
2018-04-26T00:48:13.183Z,0.00
2018-04-26T00:49:12.723Z,0.00
2018-04-26T00:50:12.903Z,0.00
2018-04-26T00:51:13.082Z,0.00
2018-04-26T00:52:13.259Z,0.00
2018-04-26T00:53:13.446Z,0.00
2018-04-26T00:54:13.628Z,0.00
2018-04-26T00:55:13.801Z,0.00
2018-04-26T00:56:13.978Z,0.00
2018-04-26T00:57:14.153Z,0.00
2018-04-26T00:58:14.336Z,0.00
2018-04-26T00:59:14.517Z,0.00
2018-04-26T01:00:14.696Z,0.00
2018-04-26T01:01:14.876Z,0.00
2018-04-26T01:02:15.054Z,0.00
2018-04-26T01:03:15.228Z,0.00
2018-04-26T01:04:15.407Z,0.00
2018-04-26T01:05:15.588Z,0.00
2018-04-26T01:06:15.770Z,0.00
2018-04-26T01:07:15.958Z,0.00
2018-04-26T01:08:16.137Z,0.00
2018-04-26T01:09:16.319Z,0.00
2018-04-26T01:10:16.500Z,0.00
2018-04-26T01:11:16.677Z,0.00
2018-04-26T01:12:16.859Z,0.00
2018-04-26T01:13:17.037Z,0.00
2018-04-26T01:14:17.213Z,0.00
2018-04-26T01:15:17.387Z,0.00
2018-04-26T01:16:17.567Z,0.00
2018-04-26T01:17:17.747Z,0.00
2018-04-26T01:18:17.923Z,0.00
2018-04-26T01:19:18.102Z,0.00
2018-04-26T01:20:18.281Z,0.00
2018-04-26T01:21:18.459Z,0.00
2018-04-26T01:22:18.640Z,0.00
2018-04-26T01:23:18.825Z,0.00
2018-04-26T01:24:19.002Z,0.00
2018-04-26T01:25:19.178Z,0.00
2018-04-26T01:26:19.361Z,0.00
2018-04-26T01:27:19.538Z,0.00
2018-04-26T01:28:19.713Z,0.00
2018-04-26T01:29:19.898Z,0.00
2018-04-26T01:30:20.063Z,0.00
2018-04-26T01:31:20.246Z,0.00
2018-04-26T01:32:20.428Z,0.00
2018-04-26T01:33:20.617Z,0.00
2018-04-26T01:34:20.800Z,0.00
2018-04-26T01:35:20.977Z,0.00
2018-04-26T01:36:21.157Z,0.00
2018-04-26T01:37:21.331Z,0.00
2018-04-26T01:38:21.511Z,0.00
2018-04-26T01:39:21.689Z,0.00
2018-04-26T01:40:21.863Z,0.00
2018-04-26T01:41:22.041Z,0.00
2018-04-26T01:42:22.221Z,0.00
2018-04-26T01:43:22.393Z,0.00
2018-04-26T01:44:22.570Z,0.00
2018-04-26T01:45:22.755Z,0.00
2018-04-26T01:46:22.944Z,0.00
2018-04-26T01:47:23.127Z,0.00
2018-04-26T01:48:23.320Z,0.00
2018-04-26T01:49:23.504Z,0.00
2018-04-26T01:50:23.682Z,0.00
2018-04-26T01:51:23.857Z,0.00
2018-04-26T01:52:24.047Z,0.00
2018-04-26T01:53:24.218Z,0.00
2018-04-26T01:54:24.399Z,0.00
2018-04-26T01:55:24.576Z,0.00
2018-04-26T01:56:24.763Z,0.00
2018-04-26T01:57:24.938Z,0.00
2018-04-26T01:58:25.120Z,0.00
2018-04-26T01:59:25.300Z,0.00
2018-04-26T02:00:25.474Z,0.00
2018-04-26T02:01:25.655Z,0.00
2018-04-26T02:02:25.830Z,0.00
2018-04-26T02:03:26.023Z,0.00
2018-04-26T02:04:26.188Z,0.00
2018-04-26T02:05:26.362Z,0.00
2018-04-26T02:06:26.542Z,0.00
2018-04-26T02:07:26.726Z,0.00
2018-04-26T02:08:26.901Z,0.00
2018-04-26T02:09:27.074Z,0.00
2018-04-26T02:10:27.248Z,0.00
2018-04-26T02:11:27.437Z,0.00
2018-04-26T02:12:27.612Z,0.00
2018-04-26T02:13:27.795Z,0.00
2018-04-26T02:14:27.980Z,0.00
2018-04-26T02:15:28.231Z,0.00
2018-04-26T02:16:28.333Z,0.00
2018-04-26T02:17:28.517Z,0.00
2018-04-26T02:18:28.695Z,0.00
2018-04-26T02:19:28.868Z,0.00
2018-04-26T02:20:29.050Z,0.00
2018-04-26T02:21:29.225Z,0.00
2018-04-26T02:22:29.406Z,0.00
2018-04-26T02:23:29.589Z,0.00
2018-04-26T02:24:29.764Z,0.00
2018-04-26T02:25:29.943Z,0.00
2018-04-26T02:26:30.129Z,0.00
2018-04-26T02:27:30.325Z,0.00
2018-04-26T02:28:30.499Z,0.00
2018-04-26T02:29:30.678Z,0.00
2018-04-26T02:30:30.856Z,0.00
2018-04-26T02:31:31.026Z,0.00
2018-04-26T02:32:31.208Z,0.00
2018-04-26T02:33:31.385Z,0.00
2018-04-26T02:34:31.572Z,0.00
2018-04-26T02:35:31.747Z,0.00
2018-04-26T02:36:31.925Z,0.00
2018-04-26T02:37:32.099Z,0.00
2018-04-26T02:38:32.280Z,0.00
2018-04-26T02:39:32.481Z,0.00
2018-04-26T02:40:32.652Z,0.00
2018-04-26T02:41:32.876Z,0.00
2018-04-26T02:42:33.023Z,0.00
2018-04-26T02:43:33.203Z,0.00
2018-04-26T02:44:33.391Z,0.00
2018-04-26T02:45:33.568Z,0.00
2018-04-26T02:46:33.747Z,0.00
2018-04-26T02:47:33.928Z,0.00
2018-04-26T02:48:34.109Z,0.00
2018-04-26T02:49:34.302Z,0.00
2018-04-26T02:50:34.481Z,0.00
2018-04-26T02:51:34.661Z,0.00
2018-04-26T02:52:34.838Z,0.00
2018-04-26T02:53:35.019Z,0.00
2018-04-26T02:54:35.194Z,0.00
2018-04-26T02:55:35.382Z,0.00
2018-04-26T02:56:35.560Z,0.00
2018-04-26T02:57:35.742Z,0.00
2018-04-26T02:58:35.922Z,0.00
2018-04-26T02:59:36.102Z,0.00
2018-04-26T03:00:36.290Z,0.00
2018-04-26T03:01:36.467Z,0.00
2018-04-26T03:02:36.637Z,0.00
2018-04-26T03:03:36.816Z,0.00
2018-04-26T03:04:37.004Z,0.00
2018-04-26T03:05:37.183Z,0.00
2018-04-26T03:06:37.367Z,0.00
2018-04-26T03:07:37.543Z,0.00
2018-04-26T03:08:37.719Z,0.00
2018-04-26T03:09:37.899Z,0.00
2018-04-26T03:10:38.078Z,0.00
2018-04-26T03:11:38.257Z,0.00
2018-04-26T03:12:38.435Z,0.00
2018-04-26T03:13:38.621Z,0.00
2018-04-26T03:14:38.792Z,0.00
2018-04-26T03:15:38.970Z,0.00
2018-04-26T03:16:39.145Z,0.00
2018-04-26T03:17:39.316Z,0.00
2018-04-26T03:18:39.498Z,0.00
2018-04-26T03:19:39.674Z,0.00
2018-04-26T03:20:39.862Z,0.00
2018-04-26T03:21:40.040Z,0.00
2018-04-26T03:22:40.214Z,0.00
2018-04-26T03:23:40.395Z,0.00
2018-04-26T03:24:40.579Z,0.00
2018-04-26T03:25:40.751Z,0.00
2018-04-26T03:26:40.932Z,0.00
2018-04-26T03:27:41.108Z,0.00
2018-04-26T03:28:41.285Z,0.00
2018-04-26T03:29:41.464Z,0.00
2018-04-26T03:30:41.646Z,0.00
2018-04-26T03:31:41.823Z,4.00
2018-04-26T03:32:41.999Z,4.00
2018-04-26T03:33:42.177Z,0.00
2018-04-26T03:34:42.352Z,0.00
2018-04-26T03:35:42.524Z,4.00
2018-04-26T03:36:42.706Z,0.00
2018-04-26T03:37:42.882Z,4.00
2018-04-26T03:38:43.066Z,4.00
2018-04-26T03:39:43.244Z,8.00
2018-04-26T03:40:43.427Z,8.00
2018-04-26T03:41:43.605Z,8.00
2018-04-26T03:42:43.800Z,8.00
2018-04-26T03:43:43.974Z,12.00
2018-04-26T03:44:44.151Z,12.00
2018-04-26T03:45:44.331Z,16.00
2018-04-26T03:46:44.508Z,20.00
2018-04-26T03:47:44.687Z,20.00
2018-04-26T03:48:44.864Z,24.00
2018-04-26T03:49:45.050Z,28.00
2018-04-26T03:50:45.229Z,32.00
2018-04-26T03:51:45.418Z,36.00
2018-04-26T03:52:45.601Z,40.00
2018-04-26T03:53:45.782Z,44.00
2018-04-26T03:54:45.961Z,52.00
2018-04-26T03:55:46.147Z,60.00
2018-04-26T03:56:46.314Z,64.00
2018-04-26T03:57:46.493Z,76.00
2018-04-26T03:58:46.680Z,80.00
2018-04-26T03:59:46.865Z,92.00
2018-04-26T04:00:47.051Z,100.00
2018-04-26T04:01:47.224Z,108.00
2018-04-26T04:02:47.401Z,124.00
2018-04-26T04:03:47.577Z,132.00
2018-04-26T04:04:47.766Z,148.00
2018-04-26T04:05:47.946Z,164.00
2018-04-26T04:06:48.120Z,176.00
2018-04-26T04:07:48.296Z,192.00
2018-04-26T04:08:48.477Z,208.00
2018-04-26T04:09:48.663Z,228.00
2018-04-26T04:10:48.848Z,244.00
2018-04-26T04:11:49.022Z,264.00
2018-04-26T04:12:49.202Z,280.00
2018-04-26T04:13:49.388Z,304.00
2018-04-26T04:14:49.562Z,324.00
2018-04-26T04:15:49.731Z,348.00
2018-04-26T04:16:49.922Z,368.00
2018-04-26T04:17:50.088Z,392.00
2018-04-26T04:18:50.267Z,416.00
2018-04-26T04:19:50.519Z,440.00
2018-04-26T04:20:50.630Z,464.00
2018-04-26T04:21:50.806Z,492.00
2018-04-26T04:22:50.978Z,520.00
2018-04-26T04:23:51.169Z,544.00
2018-04-26T04:24:51.352Z,572.00
2018-04-26T04:25:51.539Z,600.00
2018-04-26T04:26:51.772Z,632.00
2018-04-26T04:27:51.888Z,660.00
2018-04-26T04:28:52.001Z,692.00
2018-04-26T04:29:52.174Z,728.00
2018-04-26T04:30:52.352Z,776.00
2018-04-26T04:31:52.533Z,836.00
2018-04-26T04:32:52.725Z,892.00
2018-04-26T04:33:52.904Z,944.00
2018-04-26T04:34:53.101Z,976.00
2018-04-26T04:35:53.299Z,1004.00
2018-04-26T04:36:53.486Z,1040.00
2018-04-26T04:37:53.663Z,1088.00
2018-04-26T04:38:53.858Z,1096.00
2018-04-26T04:39:54.036Z,1096.00
2018-04-26T04:40:54.214Z,1124.00
2018-04-26T04:41:54.394Z,1136.00
2018-04-26T04:42:54.573Z,1144.00
2018-04-26T04:43:54.769Z,1132.00
2018-04-26T04:44:55.120Z,1128.00
2018-04-26T04:45:55.072Z,1144.00
2018-04-26T04:46:55.238Z,1164.00
2018-04-26T04:47:55.455Z,1200.00
2018-04-26T04:48:55.628Z,1248.00
2018-04-26T04:49:55.799Z,1280.00
2018-04-26T04:50:55.974Z,1324.00
2018-04-26T04:51:56.167Z,1368.00
2018-04-26T04:52:56.349Z,1412.00
2018-04-26T04:53:56.524Z,1456.00
2018-04-26T04:54:56.746Z,1508.00
2018-04-26T04:55:56.919Z,1552.00
2018-04-26T04:56:57.097Z,1584.00
2018-04-26T04:57:57.273Z,1612.00
2018-04-26T04:58:57.451Z,1656.00
2018-04-26T04:59:57.639Z,1720.00
2018-04-26T05:00:57.810Z,1832.00
2018-04-26T05:01:58.001Z,2260.00
2018-04-26T05:02:58.174Z,2784.00
2018-04-26T05:03:58.361Z,3108.00
2018-04-26T05:04:58.564Z,2756.00
2018-04-26T05:05:58.632Z,2996.00
2018-04-26T05:06:58.811Z,2728.00
2018-04-26T05:07:59.010Z,2636.00
2018-04-26T05:08:59.181Z,2548.00
2018-04-26T05:09:59.361Z,2088.00
2018-04-26T05:10:59.537Z,2220.00
2018-04-26T05:11:59.718Z,2756.00
2018-04-26T05:12:59.888Z,2880.00
2018-04-26T05:14:00.093Z,2708.00
2018-04-26T05:15:00.261Z,2968.00
2018-04-26T05:16:00.444Z,3448.00
2018-04-26T05:17:00.625Z,3292.00
2018-04-26T05:18:00.805Z,3148.00
2018-04-26T05:19:00.993Z,2928.00
2018-04-26T05:20:01.208Z,2348.00
2018-04-26T05:21:01.380Z,2084.00
2018-04-26T05:22:01.585Z,2592.00
2018-04-26T05:23:05.364Z,3268.00
2018-04-26T05:24:04.012Z,3780.00
2018-04-26T05:25:03.305Z,3920.00
2018-04-26T05:26:05.400Z,3888.00
2018-04-26T05:27:06.885Z,4372.00
2018-04-26T05:28:05.878Z,4560.00
2018-04-26T05:29:04.147Z,4616.00
2018-04-26T05:30:07.135Z,4708.00
2018-04-26T05:31:06.165Z,4744.00
2018-04-26T05:32:06.231Z,4836.00
2018-04-26T05:33:03.399Z,5256.00
2018-04-26T05:34:03.577Z,5372.00
2018-04-26T05:35:03.759Z,5240.00
2018-04-26T05:36:03.938Z,5112.00
2018-04-26T05:37:04.114Z,5008.00
2018-04-26T05:38:04.296Z,4936.00
2018-04-26T05:39:04.472Z,4780.00
2018-04-26T05:40:04.656Z,4792.00
2018-04-26T05:41:04.831Z,4868.00
2018-04-26T05:42:05.007Z,4128.00
2018-04-26T05:43:05.189Z,4572.00
2018-04-26T05:44:05.371Z,5760.00
2018-04-26T05:45:05.557Z,5468.00
2018-04-26T05:46:05.741Z,5156.00
2018-04-26T05:47:05.918Z,3920.00
2018-04-26T05:48:06.096Z,4544.00
2018-04-26T05:49:06.276Z,4620.00
2018-04-26T05:50:06.460Z,5004.00
2018-04-26T05:51:06.672Z,5612.00
2018-04-26T05:52:06.822Z,6016.00
2018-04-26T05:53:07.009Z,7080.00
2018-04-26T05:54:07.198Z,6748.00
2018-04-26T05:55:07.376Z,6328.00
2018-04-26T05:56:07.596Z,7864.00
2018-04-26T05:57:07.737Z,8452.00
2018-04-26T05:58:07.917Z,23616.00
2018-04-26T05:59:08.098Z,82304.00
2018-04-26T06:00:08.277Z,82272.00
2018-04-26T06:01:08.451Z,85664.00
2018-04-26T06:02:08.635Z,87712.00
2018-04-26T06:03:08.813Z,91488.00
2018-04-26T06:04:08.993Z,28992.00
2018-04-26T06:05:09.172Z,7612.00
2018-04-26T06:06:09.373Z,8756.00
2018-04-26T06:07:09.564Z,9104.00
2018-04-26T06:08:09.759Z,8676.00
2018-04-26T06:09:09.936Z,8560.00
2018-04-26T06:10:10.153Z,7936.00
2018-04-26T06:11:10.316Z,8032.00
2018-04-26T06:12:10.510Z,8404.00
2018-04-26T06:13:10.682Z,8384.00
2018-04-26T06:14:10.868Z,30272.00
2018-04-26T06:15:11.048Z,6784.00
2018-04-26T06:16:11.233Z,4704.00
2018-04-26T06:17:11.447Z,3772.00
2018-04-26T06:18:11.605Z,3408.00
2018-04-26T06:19:11.773Z,3244.00
2018-04-26T06:20:11.952Z,3208.00
2018-04-26T06:21:12.136Z,3536.00
2018-04-26T06:22:12.355Z,3884.00
2018-04-26T06:23:12.540Z,4140.00
2018-04-26T06:24:12.722Z,4256.00
2018-04-26T06:25:12.904Z,4836.00
2018-04-26T06:26:13.083Z,4980.00
2018-04-26T06:27:13.268Z,4536.00
2018-04-26T06:28:13.454Z,4412.00
2018-04-26T06:29:13.633Z,4088.00
2018-04-26T06:30:13.810Z,3752.00
2018-04-26T06:31:13.984Z,5704.00
2018-04-26T06:32:14.162Z,9660.00
2018-04-26T06:33:14.341Z,11112.00
2018-04-26T06:34:14.525Z,28864.00
2018-04-26T06:35:14.774Z,10892.00
2018-04-26T06:36:14.830Z,9956.00
2018-04-26T06:37:15.016Z,5140.00
2018-04-26T06:38:15.204Z,5348.00
2018-04-26T06:39:15.377Z,5276.00
2018-04-26T06:40:15.561Z,4196.00
2018-04-26T06:41:15.743Z,5128.00
2018-04-26T06:42:15.935Z,5512.00
2018-04-26T06:43:16.103Z,5172.00
2018-04-26T06:44:16.425Z,4640.00
2018-04-26T06:45:16.492Z,4324.00
2018-04-26T06:46:16.687Z,4052.00
2018-04-26T06:47:16.912Z,4792.00
2018-04-26T06:48:17.088Z,3808.00
2018-04-26T06:49:17.263Z,3072.00
2018-04-26T06:50:17.445Z,3884.00
2018-04-26T06:51:17.637Z,5092.00
2018-04-26T06:52:17.817Z,5892.00
2018-04-26T06:53:17.992Z,6068.00
2018-04-26T06:54:18.171Z,6080.00
2018-04-26T06:55:18.356Z,5608.00
2018-04-26T06:56:18.531Z,4900.00
2018-04-26T06:57:18.719Z,3644.00
2018-04-26T06:58:18.894Z,2508.00
2018-04-26T06:59:19.079Z,2100.00
2018-04-26T07:00:19.259Z,2064.00
2018-04-26T07:01:19.440Z,2248.00
2018-04-26T07:02:19.621Z,1876.00
2018-04-26T07:03:19.790Z,1548.00
2018-04-26T07:04:19.980Z,1508.00
2018-04-26T07:05:20.149Z,1708.00
2018-04-26T07:06:20.323Z,1856.00
2018-04-26T07:07:20.509Z,1860.00
2018-04-26T07:08:20.686Z,1476.00
2018-04-26T07:09:20.867Z,2440.00
2018-04-26T07:10:21.044Z,5972.00
2018-04-26T07:11:21.240Z,7812.00
2018-04-26T07:12:21.444Z,27776.00
2018-04-26T07:13:21.614Z,62720.00
2018-04-26T07:14:21.800Z,12396.00
2018-04-26T07:15:21.985Z,8140.00
2018-04-26T07:16:22.215Z,11300.00
2018-04-26T07:17:22.395Z,20832.00
2018-04-26T07:18:22.578Z,19072.00
2018-04-26T07:19:22.760Z,38976.00
2018-04-26T07:20:22.933Z,51296.00
2018-04-26T07:21:23.109Z,12648.00
2018-04-26T07:22:23.298Z,8000.00
2018-04-26T07:23:23.471Z,9508.00
2018-04-26T07:24:23.655Z,10516.00
2018-04-26T07:25:23.832Z,18336.00
2018-04-26T07:26:24.023Z,33184.00
2018-04-26T07:27:24.203Z,22496.00
2018-04-26T07:28:24.381Z,110432.00
2018-04-26T07:29:24.561Z,113600.00
2018-04-26T07:30:24.737Z,16064.00
2018-04-26T07:31:24.919Z,10444.00
2018-04-26T07:32:25.104Z,104608.00
2018-04-26T07:33:25.298Z,106368.00
2018-04-26T07:34:25.578Z,107360.00
2018-04-26T07:35:25.599Z,12384.00
2018-04-26T07:36:25.783Z,25888.00
2018-04-26T07:37:25.962Z,112960.00
2018-04-26T07:38:26.151Z,19424.00
2018-04-26T07:39:26.732Z,19520.00
2018-04-26T07:40:27.918Z,22432.00
2018-04-26T07:41:26.931Z,12748.00
2018-04-26T07:42:27.247Z,16080.00
2018-04-26T07:43:27.619Z,97792.00
2018-04-26T07:44:27.572Z,93472.00
2018-04-26T07:45:27.773Z,19936.00
2018-04-26T07:46:27.806Z,68128.00
2018-04-26T07:47:28.085Z,8928.00
2018-04-26T07:48:28.145Z,6220.00
2018-04-26T07:49:28.132Z,5584.00
2018-04-26T07:50:28.888Z,8124.00
2018-04-26T07:51:28.819Z,7780.00
2018-04-26T07:52:28.955Z,11440.00
2018-04-26T07:53:29.267Z,37280.00
2018-04-26T07:54:29.562Z,97280.00
2018-04-26T07:55:29.488Z,19200.00
2018-04-26T07:56:29.736Z,40416.00
2018-04-26T07:57:29.614Z,110144.00
2018-04-26T07:58:30.420Z,94144.00
2018-04-26T07:59:29.828Z,106560.00
2018-04-26T08:00:29.934Z,107520.00
2018-04-26T08:01:30.600Z,110848.00
2018-04-26T08:02:30.525Z,110784.00
2018-04-26T08:03:30.771Z,109920.00
2018-04-26T08:04:30.861Z,107936.00
2018-04-26T08:05:31.027Z,108448.00
2018-04-26T08:06:31.111Z,109760.00
2018-04-26T08:07:31.045Z,110880.00
2018-04-26T08:08:31.585Z,110304.00
2018-04-26T08:09:31.629Z,109504.00
2018-04-26T08:10:31.906Z,14368.00
2018-04-26T08:11:32.424Z,104928.00
2018-04-26T08:12:32.131Z,110176.00
2018-04-26T08:13:32.323Z,107584.00
2018-04-26T08:14:32.448Z,104896.00
2018-04-26T08:15:32.442Z,103968.00
2018-04-26T08:16:32.644Z,100096.00
2018-04-26T08:17:32.845Z,93568.00
2018-04-26T08:18:33.032Z,97888.00
2018-04-26T08:19:33.276Z,98656.00
2018-04-26T08:20:33.465Z,108096.00
2018-04-26T08:21:33.530Z,112416.00
2018-04-26T08:22:33.723Z,8152.00
2018-04-26T08:23:33.959Z,41696.00
2018-04-26T08:24:34.505Z,8152.00
2018-04-26T08:25:34.766Z,10776.00
2018-04-26T08:26:34.499Z,106304.00
2018-04-26T08:27:34.571Z,13308.00
2018-04-26T08:28:34.759Z,110048.00
2018-04-26T08:29:34.984Z,108384.00
2018-04-26T08:30:35.552Z,108352.00
2018-04-26T08:31:35.363Z,81920.00
2018-04-26T08:32:35.586Z,28352.00
2018-04-26T08:33:35.794Z,109312.00
2018-04-26T08:34:36.003Z,108544.00
2018-04-26T08:35:36.204Z,106304.00
2018-04-26T08:36:36.409Z,104064.00
2018-04-26T08:37:36.618Z,104128.00
2018-04-26T08:38:36.841Z,102816.00
2018-04-26T08:39:37.006Z,16040.00
2018-04-26T08:40:37.199Z,107168.00
2018-04-26T08:41:37.475Z,76384.00
2018-04-26T08:42:37.614Z,105216.00
2018-04-26T08:43:37.798Z,103904.00
2018-04-26T08:44:37.997Z,102880.00
2018-04-26T08:45:38.233Z,101376.00
2018-04-26T08:46:38.415Z,99776.00
2018-04-26T08:47:38.586Z,101856.00
2018-04-26T08:48:38.775Z,101312.00
2018-04-26T08:49:38.993Z,100416.00
2018-04-26T08:50:39.178Z,101280.00
2018-04-26T08:51:39.484Z,100960.00
2018-04-26T08:52:39.502Z,102496.00
2018-04-26T08:53:39.795Z,102208.00
2018-04-26T08:54:39.820Z,101600.00
2018-04-26T08:55:40.283Z,103744.00
2018-04-26T08:56:40.687Z,101440.00
2018-04-26T08:57:41.622Z,99232.00
2018-04-26T08:58:40.655Z,96448.00
2018-04-26T08:59:40.800Z,18304.00
2018-04-26T09:00:40.904Z,96128.00
2018-04-26T09:01:41.239Z,92960.00
2018-04-26T09:02:41.407Z,91904.00
2018-04-26T09:03:41.499Z,45600.00
2018-04-26T09:04:41.692Z,89056.00
2018-04-26T09:05:41.912Z,86656.00
2018-04-26T09:06:42.197Z,90848.00
2018-04-26T09:07:43.610Z,95968.00
2018-04-26T09:08:42.489Z,94176.00
2018-04-26T09:09:43.348Z,81920.00
2018-04-26T09:10:42.913Z,14004.00
2018-04-26T09:11:43.120Z,48960.00
2018-04-26T09:12:43.306Z,40736.00
2018-04-26T09:13:43.501Z,39200.00
2018-04-26T09:14:43.702Z,39168.00
2018-04-26T09:15:43.987Z,37312.00
2018-04-26T09:16:44.093Z,12792.00
2018-04-26T09:17:44.284Z,13084.00
2018-04-26T09:18:44.479Z,36064.00
2018-04-26T09:19:44.678Z,24576.00
2018-04-26T09:20:44.871Z,37888.00
2018-04-26T09:21:45.069Z,37792.00
2018-04-26T09:22:45.253Z,13448.00
2018-04-26T09:23:45.453Z,14448.00
2018-04-26T09:24:45.638Z,16864.00
2018-04-26T09:25:45.849Z,9456.00
2018-04-26T09:26:46.036Z,8080.00
2018-04-26T09:27:46.227Z,10492.00
2018-04-26T09:28:46.426Z,9688.00
2018-04-26T09:29:46.634Z,10492.00
2018-04-26T09:30:46.824Z,23872.00
2018-04-26T09:31:47.076Z,12680.00
2018-04-26T09:32:47.174Z,34528.00
2018-04-26T09:33:47.365Z,34144.00
2018-04-26T09:34:47.558Z,35392.00
2018-04-26T09:35:47.773Z,37024.00
2018-04-26T09:36:48.044Z,36416.00
2018-04-26T09:37:48.248Z,33696.00
2018-04-26T09:38:48.429Z,24320.00
2018-04-26T09:39:48.613Z,33920.00
2018-04-26T09:40:48.679Z,37664.00
2018-04-26T09:41:48.940Z,38080.00
2018-04-26T09:42:49.124Z,20704.00
2018-04-26T09:43:49.453Z,19808.00
2018-04-26T09:44:49.322Z,17472.00
2018-04-26T09:45:49.590Z,18080.00
2018-04-26T09:46:50.027Z,8676.00
2018-04-26T09:47:50.205Z,6296.00
2018-04-26T09:48:50.328Z,5560.00
2018-04-26T09:49:50.408Z,4604.00
2018-04-26T09:50:50.560Z,4044.00
2018-04-26T09:51:50.541Z,3924.00
2018-04-26T09:52:50.781Z,3524.00
2018-04-26T09:53:51.928Z,2576.00
2018-04-26T09:54:52.452Z,2064.00
2018-04-26T09:55:51.872Z,1724.00
2018-04-26T09:56:51.473Z,1456.00
2018-04-26T09:57:51.650Z,1296.00
2018-04-26T09:58:51.848Z,1176.00
2018-04-26T09:59:52.054Z,1104.00
2018-04-26T10:00:52.229Z,1300.00
2018-04-26T10:01:52.495Z,1684.00
2018-04-26T10:02:52.643Z,2264.00
2018-04-26T10:03:52.743Z,3244.00
2018-04-26T10:04:52.965Z,7984.00
2018-04-26T10:05:53.125Z,13868.00
2018-04-26T10:06:54.905Z,42496.00
2018-04-26T10:07:53.460Z,13432.00
2018-04-26T10:08:53.790Z,10896.00
2018-04-26T10:09:53.905Z,8008.00
2018-04-26T10:10:54.627Z,5780.00
2018-04-26T10:11:54.319Z,3552.00
2018-04-26T10:12:54.549Z,2080.00
2018-04-26T10:13:54.977Z,1464.00
2018-04-26T10:14:54.835Z,1212.00
2018-04-26T10:15:55.017Z,1128.00
2018-04-26T10:16:55.254Z,1096.00
2018-04-26T10:17:55.432Z,1164.00
2018-04-26T10:18:55.603Z,1264.00
2018-04-26T10:19:55.799Z,1388.00
2018-04-26T10:20:56.025Z,1560.00
2018-04-26T10:21:56.207Z,1808.00
2018-04-26T10:22:56.465Z,1960.00
2018-04-26T10:23:56.609Z,2028.00
2018-04-26T10:24:56.800Z,2320.00
2018-04-26T10:25:56.980Z,2820.00
2018-04-26T10:26:57.170Z,3152.00
2018-04-26T10:27:57.423Z,3404.00
2018-04-26T10:28:57.759Z,3968.00
2018-04-26T10:29:57.799Z,6728.00
2018-04-26T10:30:57.873Z,9684.00
2018-04-26T10:31:57.996Z,8980.00
2018-04-26T10:32:58.170Z,12376.00
2018-04-26T10:33:58.351Z,12528.00
2018-04-26T10:34:58.535Z,10680.00
2018-04-26T10:35:58.725Z,9104.00
2018-04-26T10:36:58.918Z,14880.00
2018-04-26T10:37:59.102Z,15264.00
2018-04-26T10:38:59.291Z,12340.00
2018-04-26T10:39:59.485Z,10896.00
2018-04-26T10:40:59.674Z,9628.00
2018-04-26T10:41:59.866Z,12356.00
2018-04-26T10:43:00.045Z,8812.00
2018-04-26T10:44:00.239Z,10104.00
2018-04-26T10:45:00.421Z,11084.00
2018-04-26T10:46:00.607Z,11700.00
2018-04-26T10:47:00.788Z,11056.00
2018-04-26T10:48:00.968Z,10544.00
2018-04-26T10:49:01.148Z,9864.00
2018-04-26T10:50:01.333Z,7340.00
2018-04-26T10:51:01.516Z,6016.00
2018-04-26T10:52:04.380Z,5512.00
2018-04-26T10:53:04.486Z,5092.00
2018-04-26T10:54:02.496Z,4808.00
2018-04-26T10:55:02.886Z,4708.00
2018-04-26T10:56:02.928Z,5176.00
2018-04-26T10:57:02.932Z,5816.00
2018-04-26T10:58:03.027Z,7252.00
2018-04-26T10:59:03.286Z,7920.00
2018-04-26T11:00:03.475Z,8712.00
2018-04-26T11:01:03.270Z,9312.00
2018-04-26T11:02:03.453Z,9140.00
2018-04-26T11:03:03.638Z,8048.00
2018-04-26T11:04:03.818Z,7444.00
2018-04-26T11:05:04.005Z,7196.00
2018-04-26T11:06:04.232Z,7060.00
2018-04-26T11:07:04.400Z,7108.00
2018-04-26T11:08:04.580Z,7396.00
2018-04-26T11:09:04.792Z,8972.00
2018-04-26T11:10:04.946Z,9232.00
2018-04-26T11:11:05.131Z,10056.00
2018-04-26T11:12:05.311Z,11136.00
2018-04-26T11:13:05.517Z,11232.00
2018-04-26T11:14:05.696Z,10648.00
2018-04-26T11:15:05.880Z,9568.00
2018-04-26T11:16:06.073Z,8244.00
2018-04-26T11:17:06.255Z,7348.00
2018-04-26T11:18:06.457Z,6656.00
2018-04-26T11:19:06.671Z,6144.00
2018-04-26T11:20:07.274Z,5708.00
2018-04-26T11:21:07.053Z,5344.00
2018-04-26T11:22:07.783Z,5080.00
2018-04-26T11:23:07.988Z,4880.00
2018-04-26T11:24:08.392Z,4764.00
2018-04-26T11:25:08.178Z,4816.00
2018-04-26T11:26:08.638Z,4708.00
2018-04-26T11:27:08.607Z,4708.00
2018-04-26T11:28:08.392Z,4724.00
2018-04-26T11:29:08.572Z,4600.00
2018-04-26T11:30:09.361Z,4488.00
2018-04-26T11:31:09.367Z,4460.00
2018-04-26T11:32:09.602Z,4584.00
2018-04-26T11:33:09.685Z,5212.00
2018-04-26T11:34:09.884Z,5528.00
2018-04-26T11:35:10.093Z,4720.00
2018-04-26T11:36:10.227Z,4668.00
2018-04-26T11:37:10.498Z,4036.00
2018-04-26T11:38:10.283Z,5560.00
2018-04-26T11:39:10.653Z,6036.00
2018-04-26T11:40:11.014Z,6660.00
2018-04-26T11:41:10.871Z,6004.00
2018-04-26T11:42:10.992Z,5908.00
2018-04-26T11:43:11.457Z,6592.00
2018-04-26T11:44:11.867Z,5752.00
2018-04-26T11:45:11.333Z,5588.00
2018-04-26T11:46:11.691Z,5464.00
2018-04-26T11:47:11.640Z,6120.00
2018-04-26T11:48:11.857Z,7396.00
2018-04-26T11:49:12.005Z,7036.00
2018-04-26T11:50:12.215Z,6184.00
2018-04-26T11:51:12.488Z,6712.00
2018-04-26T11:52:12.623Z,5996.00
2018-04-26T11:53:12.666Z,5392.00
2018-04-26T11:54:12.867Z,4332.00
2018-04-26T11:55:13.673Z,4808.00
2018-04-26T11:56:13.273Z,5860.00
2018-04-26T11:57:13.814Z,5556.00
2018-04-26T11:58:13.845Z,5176.00
2018-04-26T11:59:14.027Z,4636.00
2018-04-26T12:00:13.827Z,4304.00
2018-04-26T12:01:14.675Z,4176.00
2018-04-26T12:02:15.437Z,4420.00
2018-04-26T12:03:15.943Z,4588.00
2018-04-26T12:04:15.020Z,4232.00
2018-04-26T12:05:15.152Z,3940.00
2018-04-26T12:06:15.478Z,4696.00
2018-04-26T12:07:15.555Z,5560.00
2018-04-26T12:08:15.882Z,5648.00
2018-04-26T12:09:16.013Z,5348.00
2018-04-26T12:10:16.067Z,4516.00
2018-04-26T12:11:16.057Z,3940.00
2018-04-26T12:12:16.116Z,3088.00
2018-04-26T12:13:16.506Z,2292.00
2018-04-26T12:14:17.018Z,1640.00
2018-04-26T12:15:16.636Z,1236.00
2018-04-26T12:16:16.854Z,1292.00
2018-04-26T12:17:17.240Z,1880.00
2018-04-26T12:18:17.246Z,3308.00
2018-04-26T12:19:17.374Z,4852.00
2018-04-26T12:20:17.553Z,6156.00
2018-04-26T12:21:17.833Z,6744.00
2018-04-26T12:22:18.102Z,7152.00
2018-04-26T12:23:17.936Z,7300.00